createdAt,value
2022-12-01T00:02:30.121Z,101573.31
2022-12-01T00:05:03.898Z,101575.94
2022-12-01T00:07:31.606Z,101576.00
2022-12-01T00:10:18.100Z,101574.34
2022-12-01T00:12:47.909Z,101576.03
2022-12-01T00:15:19.648Z,101571.81
2022-12-01T00:17:50.345Z,101569.97
2022-12-01T00:20:19.723Z,101563.88
2022-12-01T00:22:58.536Z,101563.91
2022-12-01T00:25:27.102Z,101558.72
2022-12-01T00:27:55.539Z,101550.88
2022-12-01T00:30:24.494Z,101556.91
2022-12-01T00:32:52.572Z,101554.28
2022-12-01T00:35:22.826Z,101551.69
2022-12-01T00:37:51.371Z,101545.59
2022-12-01T00:40:22.028Z,101544.63
2022-12-01T00:42:53.000Z,101553.25
2022-12-01T00:45:21.085Z,101548.94
2022-12-01T00:47:49.743Z,101544.63
2022-12-01T00:50:22.450Z,101554.28
2022-12-01T00:52:54.442Z,101553.31
2022-12-01T00:55:22.461Z,101547.25
2022-12-01T00:57:54.159Z,101548.09
2022-12-01T01:00:25.919Z,101545.44
2022-12-01T01:02:54.031Z,101548.13
2022-12-01T01:05:25.462Z,101537.78
2022-12-01T01:07:58.048Z,101543.00
2022-12-01T01:10:27.717Z,101544.81
2022-12-01T01:12:56.111Z,101542.13
2022-12-01T01:15:25.822Z,101542.09
2022-12-01T01:17:54.551Z,101538.59
2022-12-01T01:20:22.625Z,101548.88
2022-12-01T01:22:51.460Z,101541.06
2022-12-01T01:25:22.423Z,101538.44
2022-12-01T01:27:50.579Z,101537.44
2022-12-01T01:30:18.217Z,101547.88
2022-12-01T01:32:47.372Z,101539.91
2022-12-01T01:35:15.127Z,101545.16
2022-12-01T01:37:43.761Z,101541.66
2022-12-01T01:40:13.016Z,101547.56
2022-12-01T01:42:42.257Z,101542.41
2022-12-01T01:45:27.730Z,101549.31
2022-12-01T01:47:58.596Z,101544.22
2022-12-01T01:50:29.500Z,101547.78
2022-12-01T01:53:05.512Z,101549.44
2022-12-01T01:55:38.489Z,101543.34
2022-12-01T01:58:10.741Z,101551.25
2022-12-01T02:00:47.184Z,101546.91
2022-12-01T02:03:21.095Z,101539.09
2022-12-01T02:06:03.459Z,101537.31
2022-12-01T02:08:38.893Z,101539.00
2022-12-01T02:11:37.463Z,101533.81
2022-12-01T02:14:40.490Z,101535.22
2022-12-01T02:17:27.959Z,101532.06
2022-12-01T02:20:09.773Z,101531.81
2022-12-01T02:22:38.097Z,101532.06
2022-12-01T02:25:16.024Z,101540.72
2022-12-01T02:28:21.104Z,101533.75
2022-12-01T02:30:57.360Z,101533.72
2022-12-01T02:33:41.488Z,101529.41
2022-12-01T02:36:37.387Z,101524.09
2022-12-01T02:39:32.220Z,101526.59
2022-12-01T02:42:09.058Z,101527.38
2022-12-01T02:44:43.933Z,101521.28
2022-12-01T02:47:17.011Z,101526.53
2022-12-01T02:49:53.211Z,101524.16
2022-12-01T02:52:25.611Z,101525.03
2022-12-01T02:54:54.574Z,101522.31
2022-12-01T02:57:23.623Z,101521.34
2022-12-01T02:59:55.966Z,101526.75
2022-12-01T03:02:29.897Z,101521.31
2022-12-01T03:05:37.516Z,101520.50
2022-12-01T03:08:38.449Z,101526.72
2022-12-01T03:11:10.421Z,101529.25
2022-12-01T03:14:00.922Z,101524.88
2022-12-01T03:16:39.474Z,101519.50
2022-12-01T03:19:33.273Z,101516.94
2022-12-01T03:22:27.845Z,101521.28
2022-12-01T03:25:04.393Z,101517.81
2022-12-01T03:27:36.327Z,101524.78
2022-12-01T03:30:11.413Z,101516.03
2022-12-01T03:32:42.114Z,101512.69
2022-12-01T03:35:23.630Z,101513.41
2022-12-01T03:38:03.689Z,101510.72
2022-12-01T03:40:33.376Z,101512.25
2022-12-01T03:43:11.489Z,101515.72
2022-12-01T03:46:23.678Z,101507.06
2022-12-01T03:48:54.715Z,101507.22
2022-12-01T03:51:33.574Z,101505.38
2022-12-01T03:54:29.270Z,101502.81
2022-12-01T03:57:06.221Z,101509.72
2022-12-01T04:00:25.296Z,101501.00
2022-12-01T04:02:57.787Z,101502.69
2022-12-01T04:05:30.154Z,101499.59
2022-12-01T04:07:59.650Z,101505.09
2022-12-01T04:10:27.393Z,101500.53
2022-12-01T04:12:59.805Z,101502.34
2022-12-01T04:15:29.192Z,101507.34
2022-12-01T04:17:56.237Z,101502.44
2022-12-01T04:20:23.558Z,101508.66
2022-12-01T04:22:53.429Z,101502.41
2022-12-01T04:25:21.174Z,101501.63
2022-12-01T04:27:49.112Z,101503.53
2022-12-01T04:30:16.601Z,101501.81
2022-12-01T04:32:46.905Z,101501.66
2022-12-01T04:35:16.978Z,101498.41
2022-12-01T04:37:47.576Z,101497.38
2022-12-01T04:40:19.332Z,101501.59
2022-12-01T04:42:46.681Z,101494.78
2022-12-01T04:45:15.848Z,101499.78
2022-12-01T04:47:45.966Z,101496.38
2022-12-01T04:50:18.240Z,101502.13
2022-12-01T04:52:48.661Z,101502.25
2022-12-01T04:55:17.158Z,101510.72
2022-12-01T04:57:45.896Z,101511.25
2022-12-01T05:00:16.677Z,101513.13
2022-12-01T05:02:46.362Z,101504.31
2022-12-01T05:05:14.466Z,101503.59
2022-12-01T05:07:42.181Z,101499.75
2022-12-01T05:10:09.700Z,101502.88
2022-12-01T05:12:37.654Z,101500.50
2022-12-01T05:15:06.315Z,101502.63
2022-12-01T05:17:36.967Z,101501.59
2022-12-01T05:20:27.670Z,101504.06
2022-12-01T05:23:06.125Z,101506.03
2022-12-01T05:25:34.588Z,101501.25
2022-12-01T05:28:01.934Z,101497.78
2022-12-01T05:30:33.275Z,101501.13
2022-12-01T05:33:00.737Z,101501.25
2022-12-01T05:35:32.929Z,101507.25
2022-12-01T05:38:07.772Z,101504.88
2022-12-01T05:40:37.749Z,101510.75
2022-12-01T05:43:08.896Z,101504.84
2022-12-01T05:45:36.835Z,101518.88
2022-12-01T05:48:05.249Z,101510.75
2022-12-01T05:50:32.700Z,101513.25
2022-12-01T05:52:59.940Z,101514.31
2022-12-01T05:55:29.628Z,101517.59
2022-12-01T05:57:56.830Z,101521.72
2022-12-01T06:00:28.457Z,101526.28
2022-12-01T06:02:59.138Z,101526.31
2022-12-01T06:05:29.760Z,101530.81
2022-12-01T06:07:57.208Z,101531.78
2022-12-01T06:10:27.863Z,101529.47
2022-12-01T06:13:03.009Z,101543.44
2022-12-01T06:15:33.716Z,101540.91
2022-12-01T06:18:01.374Z,101536.56
2022-12-01T06:20:28.868Z,101540.09
2022-12-01T06:22:59.561Z,101536.56
2022-12-01T06:25:30.936Z,101538.34
2022-12-01T06:27:59.075Z,101546.41
2022-12-01T06:30:29.860Z,101546.19
2022-12-01T06:32:58.085Z,101550.50
2022-12-01T06:35:25.323Z,101556.63
2022-12-01T06:37:58.241Z,101555.00
2022-12-01T06:40:26.137Z,101560.03
2022-12-01T06:42:53.438Z,101561.16
2022-12-01T06:45:21.560Z,101561.78
2022-12-01T06:47:48.990Z,101565.34
2022-12-01T06:50:16.506Z,101561.75
2022-12-01T06:52:44.156Z,101559.19
2022-12-01T06:55:11.358Z,101566.06
2022-12-01T06:57:40.415Z,101564.88
2022-12-01T07:00:11.933Z,101564.84
2022-12-01T07:02:39.603Z,101570.00
2022-12-01T07:05:07.168Z,101564.66
2022-12-01T07:07:40.369Z,101566.50
2022-12-01T07:10:10.386Z,101572.59
2022-12-01T07:12:37.833Z,101577.81
2022-12-01T07:15:06.610Z,101574.22
2022-12-01T07:17:34.587Z,101580.50
2022-12-01T07:20:04.404Z,101580.28
2022-12-01T07:22:32.940Z,101579.72
2022-12-01T07:25:00.163Z,101581.50
2022-12-01T07:27:30.355Z,101585.91
2022-12-01T07:29:57.482Z,101585.16
2022-12-01T07:32:24.588Z,101591.13
2022-12-01T07:34:51.801Z,101598.97
2022-12-01T07:37:18.885Z,101602.59
2022-12-01T07:39:52.127Z,101600.59
2022-12-01T07:42:19.760Z,101600.84
2022-12-01T07:44:46.897Z,101595.69
2022-12-01T07:47:14.807Z,101603.69
2022-12-01T07:49:41.852Z,101604.53
2022-12-01T07:52:09.009Z,101607.22
2022-12-01T07:54:36.041Z,101609.09
2022-12-01T07:57:03.127Z,101609.09
2022-12-01T07:59:30.314Z,101616.19
2022-12-01T08:01:57.597Z,101610.81
2022-12-01T08:04:24.756Z,101611.97
2022-12-01T08:06:54.321Z,101613.38
2022-12-01T08:09:21.513Z,101612.97
2022-12-01T08:11:48.775Z,101619.00
2022-12-01T08:14:16.286Z,101619.31
2022-12-01T08:16:44.187Z,101620.13
2022-12-01T08:19:14.198Z,101626.06
2022-12-01T08:21:44.026Z,101628.66
2022-12-01T08:24:14.624Z,101638.13
2022-12-01T08:26:41.764Z,101643.47
2022-12-01T08:29:13.604Z,101636.00
2022-12-01T08:31:44.206Z,101638.69
2022-12-01T08:34:11.424Z,101634.28
2022-12-01T08:36:38.585Z,101636.56
2022-12-01T08:39:10.759Z,101633.19
2022-12-01T08:41:37.865Z,101636.97
2022-12-01T08:44:06.171Z,101628.25
2022-12-01T08:46:35.127Z,101633.75
2022-12-01T08:49:04.844Z,101637.94
2022-12-01T08:51:33.783Z,101635.47
2022-12-01T08:54:01.419Z,101639.88
2022-12-01T08:56:33.855Z,101639.78
2022-12-01T08:59:04.638Z,101641.84
2022-12-01T09:01:33.191Z,101647.31
2022-12-01T09:04:13.869Z,101651.66
2022-12-01T09:06:43.540Z,101649.34
2022-12-01T09:09:13.734Z,101651.25
2022-12-01T09:11:41.222Z,101653.91
2022-12-01T09:14:14.876Z,101644.50
2022-12-01T09:16:44.305Z,101646.31
2022-12-01T09:19:13.313Z,101649.88
2022-12-01T09:21:45.184Z,101650.88
2022-12-01T09:24:17.935Z,101655.91
2022-12-01T09:26:47.393Z,101662.81
2022-12-01T09:29:17.061Z,101662.81
2022-12-01T09:31:44.653Z,101665.38
2022-12-01T09:34:19.071Z,101658.56
2022-12-01T09:36:48.591Z,101665.59
2022-12-01T09:39:18.528Z,101665.47
2022-12-01T09:42:02.888Z,101674.34
2022-12-01T09:44:56.456Z,101665.66
2022-12-01T09:47:31.267Z,101670.03
2022-12-01T09:50:05.796Z,101675.31
2022-12-01T09:52:42.556Z,101673.31
2022-12-01T09:55:18.396Z,101678.72
2022-12-01T09:57:52.784Z,101675.31
2022-12-01T10:00:24.552Z,101674.50
2022-12-01T10:03:01.502Z,101672.09
2022-12-01T10:05:34.964Z,101670.50
2022-12-01T10:08:06.467Z,101669.53
2022-12-01T10:10:41.072Z,101666.28
2022-12-01T10:13:19.929Z,101657.47
2022-12-01T10:15:54.270Z,101657.94
2022-12-01T10:18:34.734Z,101650.25
2022-12-01T10:21:10.885Z,101645.69
2022-12-01T10:23:52.368Z,101647.50
2022-12-01T10:26:31.763Z,101638.75
2022-12-01T10:29:23.248Z,101634.56
2022-12-01T10:32:02.832Z,101635.97
2022-12-01T10:34:38.203Z,101624.88
2022-12-01T10:37:06.755Z,101625.09
2022-12-01T10:39:43.617Z,101625.19
2022-12-01T10:42:27.865Z,101619.63
2022-12-01T10:45:01.740Z,101611.78
2022-12-01T10:47:29.110Z,101612.59
2022-12-01T10:50:00.071Z,101609.19
2022-12-01T10:52:38.008Z,101596.03
2022-12-01T10:55:28.581Z,101604.03
2022-12-01T10:58:06.166Z,101604.09
2022-12-01T11:03:33.520Z,101590.91
2022-12-01T11:06:03.452Z,101590.09
2022-12-01T11:08:41.341Z,101584.09
2022-12-01T11:11:29.181Z,101585.97
2022-12-01T11:14:03.203Z,101570.19
2022-12-01T11:16:44.442Z,101562.13
2022-12-01T11:19:26.867Z,101556.47
2022-12-01T11:21:57.455Z,101564.03
2022-12-01T11:24:46.084Z,101553.09
2022-12-01T11:27:20.813Z,101552.72
2022-12-01T11:29:51.147Z,101545.16
2022-12-01T11:32:26.517Z,101546.53
2022-12-01T11:35:14.085Z,101545.59
2022-12-01T11:38:28.443Z,101545.56
2022-12-01T11:40:52.280Z,101539.63
2022-12-01T11:43:43.739Z,101544.16
2022-12-01T11:49:04.832Z,101544.19
2022-12-01T11:51:38.721Z,101541.50
2022-12-01T11:54:19.059Z,101537.22
2022-12-01T11:56:56.094Z,101535.47
2022-12-01T11:59:36.059Z,101518.50
2022-12-01T12:02:23.032Z,101520.63
2022-12-01T12:05:19.601Z,101519.31
2022-12-01T12:08:03.187Z,101517.31
2022-12-01T12:10:55.226Z,101512.22
2022-12-01T12:13:46.635Z,101511.19
2022-12-01T12:16:34.594Z,101514.69
2022-12-01T12:19:34.073Z,101498.00
2022-12-01T12:22:37.718Z,101503.16
2022-12-01T12:25:27.871Z,101496.94
2022-12-01T12:28:21.833Z,101490.22
2022-12-01T12:31:29.393Z,101491.75
2022-12-01T12:34:13.974Z,101488.81
2022-12-01T12:37:12.404Z,101485.50
2022-12-01T12:40:07.261Z,101473.63
2022-12-01T12:42:53.095Z,101473.75
2022-12-01T12:45:30.325Z,101476.84
2022-12-01T12:48:07.462Z,101463.59
2022-12-01T12:50:57.329Z,101471.41
2022-12-01T12:53:31.135Z,101472.63
2022-12-01T12:56:10.387Z,101463.28
2022-12-01T12:59:08.529Z,101464.28
2022-12-01T13:01:48.026Z,101470.00
2022-12-01T13:04:34.136Z,101460.16
2022-12-01T13:07:09.837Z,101467.91
2022-12-01T13:09:53.966Z,101466.25
2022-12-01T13:12:40.880Z,101466.41
2022-12-01T13:15:22.200Z,101469.63
2022-12-01T13:18:00.448Z,101466.75
2022-12-01T13:20:30.313Z,101466.19
2022-12-01T13:23:03.599Z,101459.78
2022-12-01T13:25:36.340Z,101464.22
2022-12-01T13:28:08.153Z,101459.03
2022-12-01T13:30:35.675Z,101460.03
2022-12-01T13:33:07.508Z,101453.94
2022-12-01T13:35:43.184Z,101459.31
2022-12-01T13:38:29.773Z,101450.53
2022-12-01T13:41:32.163Z,101454.25
2022-12-01T13:44:01.567Z,101450.66
2022-12-01T13:46:55.885Z,101453.31
2022-12-01T13:49:42.813Z,101452.47
2022-12-01T13:52:22.333Z,101450.72
2022-12-01T13:55:10.671Z,101447.22
2022-12-01T13:57:44.260Z,101445.47
2022-12-01T14:00:30.543Z,101430.41
2022-12-01T14:03:30.534Z,101444.59
2022-12-01T14:06:20.037Z,101439.13
2022-12-01T14:08:54.307Z,101439.66
2022-12-01T14:11:30.672Z,101430.75
2022-12-01T14:14:05.564Z,101437.47
2022-12-01T14:17:02.698Z,101437.31
2022-12-01T14:19:50.393Z,101426.28
2022-12-01T14:22:49.145Z,101428.16
2022-12-01T14:25:29.477Z,101430.56
2022-12-01T14:28:04.429Z,101421.81
2022-12-01T14:30:48.845Z,101427.94
2022-12-01T14:33:48.647Z,101432.09
2022-12-01T14:36:29.305Z,101436.25
2022-12-01T14:39:21.423Z,101430.16
2022-12-01T14:41:56.851Z,101436.56
2022-12-01T14:44:29.059Z,101436.22
2022-12-01T14:47:35.212Z,101431.72
2022-12-01T14:50:24.883Z,101435.47
2022-12-01T14:53:28.254Z,101430.16
2022-12-01T14:56:01.705Z,101427.50
2022-12-01T14:58:32.377Z,101437.16
2022-12-01T15:01:05.421Z,101429.25
2022-12-01T15:03:46.531Z,101432.97
2022-12-01T15:06:19.828Z,101429.53
2022-12-01T15:12:11.739Z,101434.03
2022-12-01T15:14:53.746Z,101441.09
2022-12-01T15:17:31.444Z,101439.34
2022-12-01T15:20:05.804Z,101448.13
2022-12-01T15:22:40.196Z,101448.88
2022-12-01T15:25:15.186Z,101449.75
2022-12-01T15:27:49.376Z,101446.25
2022-12-01T15:30:27.725Z,101453.19
2022-12-01T15:32:59.392Z,101453.19
2022-12-01T15:35:31.636Z,101460.13
2022-12-01T15:38:18.787Z,101462.59
2022-12-01T15:41:28.337Z,101457.28
2022-12-01T15:47:03.837Z,101460.56
2022-12-01T15:49:37.375Z,101457.91
2022-12-01T15:52:10.154Z,101455.13
2022-12-01T15:54:49.917Z,101452.47
2022-12-01T15:57:25.111Z,101458.59
2022-12-01T16:00:05.609Z,101455.78
2022-12-01T16:02:53.429Z,101458.53
2022-12-01T16:05:26.185Z,101459.25
2022-12-01T16:08:13.753Z,101461.00
2022-12-01T16:10:47.654Z,101457.50
2022-12-01T16:14:30.583Z,101461.81
2022-12-01T16:17:00.756Z,101466.16
2022-12-01T16:19:49.076Z,101463.38
2022-12-01T16:22:31.842Z,101464.94
2022-12-01T16:25:02.179Z,101462.28
2022-12-01T16:27:42.199Z,101466.69
2022-12-01T16:30:35.340Z,101462.91
2022-12-01T16:33:22.605Z,101471.75
2022-12-01T16:36:20.374Z,101461.84
2022-12-01T16:38:55.432Z,101475.03
2022-12-01T16:41:37.816Z,101466.38
2022-12-01T16:44:29.087Z,101473.13
2022-12-01T16:46:55.040Z,101475.66
2022-12-01T16:49:28.983Z,101478.22
2022-12-01T16:52:01.133Z,101474.31
2022-12-01T16:54:37.652Z,101484.88
2022-12-01T16:57:08.675Z,101484.38
2022-12-01T16:59:38.885Z,101490.56
2022-12-01T17:02:15.762Z,101498.28
2022-12-01T17:04:55.403Z,101498.28
2022-12-01T17:07:30.518Z,101503.31
2022-12-01T17:10:00.972Z,101506.31
2022-12-01T17:12:29.341Z,101506.28
2022-12-01T17:15:04.574Z,101504.81
2022-12-01T17:17:34.750Z,101507.47
2022-12-01T17:20:13.833Z,101517.13
2022-12-01T17:23:03.106Z,101522.34
2022-12-01T17:25:43.181Z,101522.81
2022-12-01T17:28:21.292Z,101530.88
2022-12-01T17:31:00.645Z,101527.28
2022-12-01T17:33:38.470Z,101530.78
2022-12-01T17:36:19.476Z,101535.19
2022-12-01T17:38:52.225Z,101527.28
2022-12-01T17:44:09.388Z,101535.91
2022-12-01T17:46:49.067Z,101539.34
2022-12-01T17:49:19.226Z,101533.16
2022-12-01T17:51:49.099Z,101553.06
2022-12-01T17:54:20.379Z,101543.50
2022-12-01T17:56:58.952Z,101546.97
2022-12-01T17:59:31.907Z,101550.47
2022-12-01T18:02:00.409Z,101549.22
2022-12-01T18:04:27.896Z,101550.03
2022-12-01T18:07:03.513Z,101558.22
2022-12-01T18:09:43.444Z,101552.00
2022-12-01T18:12:15.918Z,101552.19
2022-12-01T18:14:55.162Z,101553.88
2022-12-01T18:17:27.306Z,101558.22
2022-12-01T18:20:10.886Z,101560.88
2022-12-01T18:22:55.353Z,101562.66
2022-12-01T18:25:31.055Z,101569.63
2022-12-01T18:28:39.502Z,101558.25
2022-12-01T18:31:19.254Z,101570.41
2022-12-01T18:34:15.998Z,101570.41
2022-12-01T18:36:47.531Z,101567.81
2022-12-01T18:39:26.182Z,101574.00
2022-12-01T18:42:05.109Z,101572.72
2022-12-01T18:44:45.049Z,101574.34
2022-12-01T18:47:25.931Z,101579.69
2022-12-01T18:49:53.517Z,101575.16
2022-12-01T18:52:23.827Z,101574.44
2022-12-01T18:54:51.155Z,101581.47
2022-12-01T18:57:19.337Z,101588.91
2022-12-01T18:59:52.870Z,101589.91
2022-12-01T19:02:25.760Z,101593.94
2022-12-01T19:04:59.269Z,101590.88
2022-12-01T19:07:30.381Z,101588.16
2022-12-01T19:10:05.805Z,101592.53
2022-12-01T19:12:50.023Z,101595.19
2022-12-01T19:15:23.618Z,101594.28
2022-12-01T19:17:51.118Z,101595.34
2022-12-01T19:20:29.351Z,101597.84
2022-12-01T19:23:07.058Z,101606.75
2022-12-01T19:25:34.482Z,101606.81
2022-12-01T19:28:07.362Z,101612.00
2022-12-01T19:30:37.058Z,101598.59
2022-12-01T19:33:04.434Z,101607.00
2022-12-01T19:35:34.009Z,101605.44
2022-12-01T19:38:05.137Z,101613.38
2022-12-01T19:40:43.328Z,101616.66
2022-12-01T19:43:18.658Z,101614.63
2022-12-01T19:45:51.368Z,101615.84
2022-12-01T19:48:24.003Z,101619.97
2022-12-01T19:51:03.610Z,101611.41
2022-12-01T19:53:42.690Z,101617.38
2022-12-01T19:56:10.122Z,101615.69
2022-12-01T19:58:37.371Z,101614.97
2022-12-01T20:01:12.159Z,101615.00
2022-12-01T20:03:50.240Z,101619.34
2022-12-01T20:06:32.699Z,101625.44
2022-12-01T20:09:04.775Z,101624.69
2022-12-01T20:11:37.984Z,101632.53
2022-12-01T20:14:11.995Z,101635.00
2022-12-01T20:16:42.119Z,101636.81
2022-12-01T20:19:13.548Z,101639.34
2022-12-01T20:21:51.670Z,101641.03
2022-12-01T20:24:32.439Z,101647.78
2022-12-01T20:27:05.222Z,101644.31
2022-12-01T20:29:33.016Z,101644.91
2022-12-01T20:32:07.010Z,101650.09
2022-12-01T20:34:43.858Z,101644.66
2022-12-01T20:37:21.035Z,101650.03
2022-12-01T20:39:55.051Z,101645.47
2022-12-01T20:42:42.065Z,101645.41
2022-12-01T20:48:05.953Z,101654.63
2022-12-01T20:50:38.133Z,101654.59
2022-12-01T20:53:14.642Z,101650.13
2022-12-01T20:55:56.433Z,101655.13
2022-12-01T20:58:26.761Z,101656.03
2022-12-01T21:01:08.819Z,101652.47
2022-12-01T21:03:49.305Z,101648.00
2022-12-01T21:06:32.396Z,101653.06
2022-12-01T21:09:07.602Z,101658.00
2022-12-01T21:12:09.627Z,101664.03
2022-12-01T21:14:48.883Z,101659.59
2022-12-01T21:17:37.842Z,101665.44
2022-12-01T21:20:24.675Z,101669.31
2022-12-01T21:23:11.858Z,101675.97
2022-12-01T21:25:43.727Z,101669.19
2022-12-01T21:28:28.472Z,101668.78
2022-12-01T21:31:05.178Z,101674.72
2022-12-01T21:33:39.317Z,101666.00
2022-12-01T21:36:22.757Z,101672.97
2022-12-01T21:39:26.642Z,101673.88
2022-12-01T21:42:16.936Z,101670.34
2022-12-01T21:44:49.203Z,101674.66
2022-12-01T21:47:20.844Z,101673.75
2022-12-01T21:50:05.684Z,101668.16
2022-12-01T21:52:49.337Z,101677.56
2022-12-01T21:55:20.998Z,101674.91
2022-12-01T21:57:55.091Z,101670.66
2022-12-01T22:00:44.633Z,101669.56
2022-12-01T22:03:36.091Z,101675.56
2022-12-01T22:06:31.115Z,101672.03
2022-12-01T22:09:08.467Z,101671.19
2022-12-01T22:11:36.053Z,101670.41
2022-12-01T22:14:09.497Z,101673.00
2022-12-01T22:16:46.260Z,101671.81
2022-12-01T22:19:25.561Z,101670.91
2022-12-01T22:22:23.613Z,101671.34
2022-12-01T22:25:02.252Z,101674.56
2022-12-01T22:27:41.372Z,101671.38
2022-12-01T22:30:11.285Z,101672.22
2022-12-01T22:32:56.295Z,101668.88
2022-12-01T22:35:29.032Z,101666.97
2022-12-01T22:38:14.384Z,101665.03
2022-12-01T22:41:12.024Z,101671.75
2022-12-01T22:43:50.015Z,101674.00
2022-12-01T22:46:44.592Z,101674.34
2022-12-01T22:49:22.386Z,101672.50
2022-12-01T22:52:20.766Z,101675.25
2022-12-01T22:54:53.406Z,101677.84
2022-12-01T22:57:35.177Z,101679.44
2022-12-01T23:00:18.153Z,101685.38
2022-12-01T23:02:48.516Z,101680.97
2022-12-01T23:05:29.801Z,101681.66
2022-12-01T23:07:59.820Z,101689.38
2022-12-01T23:10:35.095Z,101689.94
2022-12-01T23:13:22.833Z,101681.09
2022-12-01T23:15:57.687Z,101677.59
2022-12-01T23:18:32.390Z,101675.75
2022-12-01T23:21:02.100Z,101678.34
2022-12-01T23:23:35.325Z,101674.81
2022-12-01T23:26:09.118Z,101675.47
2022-12-01T23:28:41.595Z,101672.72
2022-12-01T23:31:09.785Z,101676.28
2022-12-01T23:33:41.414Z,101671.25
2022-12-01T23:36:23.296Z,101675.28
2022-12-01T23:38:53.490Z,101667.47
2022-12-01T23:41:40.588Z,101665.81
2022-12-01T23:44:20.587Z,101666.09
2022-12-01T23:46:56.722Z,101663.34
2022-12-01T23:49:32.891Z,101665.16
2022-12-01T23:52:02.596Z,101663.59
2022-12-01T23:54:35.120Z,101651.22
2022-12-01T23:57:14.883Z,101657.41
2022-12-01T23:59:45.459Z,101649.50
